Latest Weather Observations for Shark Bay Airport

IDW60801

Issued at 4:03 pm WST Friday 28 April 2017 (issued every 30 minutes, with the page automatically refreshed every 10 minutes)

About weather observations | Map of weather stations | Latest weather observations for WA | Other Formats
Station Details ID: 006105 Name: SHARK BAY AIRPORT Lat: -25.89 Lon: 113.58 Height: 33.8 m
Data from the previous 72 hours. | See also: Recent months at Shark Bay Airport
Date/Time
WST
Temp
°C
App
Temp
°C
Dew
Point
°C
Rel
Hum
%
Delta-T
°C
Wind Press
QNH
hPa
Press
MSL
hPa
Rain since
9am
mm
Dir  Spd
km/h
Gust
km/h
Spd
kts
Gust
kts
28/04:00pm 27.9 22.3 7.2 27 11.0 SW 26 35 14 19 1018.1 1018.0 0.0
28/03:30pm 28.2 22.4 4.5 22 12.1 SW 24 33 13 18 1018.2 1018.1 0.0
28/03:00pm 28.3 22.3 5.2 23 11.9 SW 26 37 14 20 1018.1 1018.0 0.0
28/02:30pm 28.1 21.7 5.0 23 11.9 SW 28 46 15 25 1018.3 1018.2 0.0
28/02:29pm 28.4 22.0 5.3 23 12.0 SW 28 46 15 25 1018.2 1018.1 0.0
28/02:00pm 28.3 21.0 4.6 22 12.1 SW 32 41 17 22 1018.4 1018.3 0.0
28/01:30pm 28.4 22.1 5.9 24 11.8 SW 28 37 15 20 1018.7 1018.6 0.0
28/01:00pm 28.7 23.5 3.5 20 12.7 S 20 37 11 20 1019.2 1019.1 0.0
28/12:30pm 28.8 24.6 5.6 23 12.1 S 17 28 9 15 1019.5 1019.4 0.0
28/12:00pm 29.2 24.2 4.6 21 12.6 SSE 20 33 11 18 1020.0 1019.9 0.0
28/11:30am 28.5 23.0 4.1 21 12.4 SE 22 30 12 16 1020.3 1020.2 0.0
28/11:00am 27.8 22.7 7.6 28 10.8 SE 24 32 13 17 1020.8 1020.7 0.0
28/10:30am 26.8 21.7 7.8 30 10.2 ESE 24 33 13 18 1021.1 1021.0 0.0
28/10:00am 26.4 22.0 8.8 33 9.6 ESE 22 30 12 16 1021.2 1021.1 0.0
28/09:30am 25.1 20.7 9.0 36 8.7 ESE 22 30 12 16 1021.4 1021.3 0.0
28/09:00am 23.9 18.9 9.5 40 7.8 ESE 26 35 14 19 1021.4 1021.3 0.0
28/08:30am 23.1 19.0 10.2 44 7.1 ESE 22 30 12 16 1021.3 1021.2 0.0
28/08:00am 21.6 17.7 10.7 50 6.0 ESE 22 30 12 16 1021.2 1021.1 0.0
28/07:30am 19.9 16.7 11.1 57 4.8 ESE 19 26 10 14 1021.0 1020.9 0.0
28/07:00am 18.3 15.4 10.9 62 4.0 ESE 17 20 9 11 1020.7 1020.6 0.0
28/06:30am 18.1 15.5 10.7 62 4.0 ESE 15 20 8 11 1020.5 1020.4 0.0
28/06:00am 18.4 15.2 11.2 63 3.9 SE 19 24 10 13 1020.4 1020.3 0.0
28/05:30am 17.8 15.2 10.7 63 3.8 ESE 15 19 8 10 1020.4 1020.3 0.0
28/05:00am 18.6 15.5 10.4 59 4.4 ESE 17 22 9 12 1020.1 1020.0 0.0
28/04:30am 18.3 15.7 10.7 61 4.1 ESE 15 19 8 10 1020.0 1019.9 0.0
28/04:00am 18.3 15.7 10.7 61 4.1 SE 15 20 8 11 1019.9 1019.8 0.0
28/03:30am 18.2 15.5 10.3 60 4.2 SE 15 19 8 10 1019.9 1019.8 0.0
28/03:00am 18.2 15.9 10.6 61 4.1 SE 13 17 7 9 1019.8 1019.7 0.0
28/02:30am 19.6 17.1 10.9 57 4.7 SE 15 20 8 11 1019.6 1019.5 0.0
28/02:00am 20.1 17.3 9.9 52 5.5 SE 15 20 8 11 1019.6 1019.5 0.0
28/01:30am 20.2 17.1 10.3 53 5.4 ESE 17 20 9 11 1019.5 1019.4 0.0
28/01:00am 20.4 17.4 10.5 53 5.4 ESE 17 19 9 10 1019.6 1019.5 0.0
28/12:30am 21.0 17.9 10.2 50 5.9 ESE 17 22 9 12 1019.6 1019.5 0.0
28/12:00am 21.2 17.7 10.1 49 6.0 SE 19 24 10 13 1019.7 1019.6 0.0
 
Date/Time
WST
Temp
°C
App
Temp
°C
Dew
Point
°C
Rel
Hum
%
Delta-T
°C
Wind Press
QNH
hPa
Press
MSL
hPa
Rain since
9am
mm
Dir  Spd
km/h
Gust
km/h
Spd
kts
Gust
kts
27/11:30pm 20.7 17.8 11.1 54 5.3 SE 17 20 9 11 1019.9 1019.8 0.0
27/11:00pm 20.5 18.5 12.7 61 4.4 SE 15 20 8 11 1019.9 1019.8 0.0
27/10:30pm 21.1 19.1 14.0 64 4.1 SSE 17 22 9 12 1019.9 1019.8 0.0
27/10:00pm 21.6 19.4 14.5 64 4.2 SSE 19 28 10 15 1019.9 1019.8 0.0
27/09:30pm 22.0 19.8 14.9 64 4.2 SSE 20 30 11 16 1019.6 1019.5 0.0
27/09:00pm 22.3 19.6 14.7 62 4.5 SSE 22 32 12 17 1019.5 1019.4 0.0
27/08:30pm 22.5 19.7 14.4 60 4.8 S 22 30 12 16 1019.3 1019.2 0.0
27/08:00pm 22.8 19.4 13.6 56 5.3 S 24 33 13 18 1019.1 1019.0 0.0
27/07:30pm 23.0 19.6 12.6 52 5.9 S 22 30 12 16 1018.8 1018.7 0.0
27/07:00pm 23.4 19.8 13.0 52 6.0 S 24 32 13 17 1018.5 1018.4 0.0
27/06:30pm 24.1 19.9 11.1 44 7.3 S 24 33 13 18 1018.3 1018.2 0.0
27/06:00pm 24.9 20.6 10.8 41 7.9 S 24 33 13 18 1018.0 1017.9 0.0
27/05:30pm 26.5 21.9 9.8 35 9.3 SW 24 32 13 17 1017.8 1017.7 0.0
27/05:00pm 28.4 23.3 7.6 27 11.2 WSW 24 33 13 18 1017.5 1017.4 0.0
27/04:30pm 29.2 25.4 7.7 26 11.7 WSW 17 26 9 14 1017.5 1017.4 0.0
27/04:00pm 30.7 26.5 5.9 21 13.1 SE 17 26 9 14 1017.5 1017.4 0.0
27/03:30pm 30.8 26.1 5.3 20 13.4 SE 19 30 10 16 1017.5 1017.4 0.0
27/03:00pm 31.0 26.4 5.4 20 13.5 SE 19 30 10 16 1017.5 1017.4 0.0
27/02:30pm 30.7 26.0 5.2 20 13.4 SE 19 28 10 15 1017.7 1017.6 0.0
27/02:00pm 30.6 26.4 5.8 21 13.1 SE 17 30 9 16 1017.8 1017.7 0.0
27/01:30pm 30.7 26.5 5.9 21 13.2 SE 17 26 9 14 1018.0 1017.9 0.0
27/01:00pm 30.5 26.8 6.4 22 12.9 SE 15 22 8 12 1018.5 1018.4 0.0
27/12:30pm 29.6 26.0 6.9 24 12.2 ESE 15 30 8 16 1019.1 1019.0 0.0
27/12:00pm 29.0 24.7 5.1 22 12.4 ESE 17 24 9 13 1019.6 1019.5 0.0
27/11:30am 28.7 24.1 5.5 23 12.1 E 19 26 10 14 1020.0 1019.9 0.0
27/11:00am 28.0 23.2 5.6 24 11.6 E 20 30 11 16 1020.4 1020.3 0.0
27/10:30am 27.4 22.1 6.8 27 10.9 ESE 24 32 13 17 1020.6 1020.5 0.0
27/10:00am 26.9 21.7 7.4 29 10.4 E 24 33 13 18 1020.7 1020.6 0.0
27/09:30am 25.1 19.4 6.8 31 9.6 ESE 26 35 14 19 1020.9 1020.8 0.0
27/09:00am 23.8 18.5 6.6 33 8.8 E 24 33 13 18 1020.9 1020.8 0.0
27/08:30am 24.5 19.3 7.2 33 9.1 E 24 30 13 16 1020.8 1020.7 0.0
27/08:00am 22.7 17.7 8.0 39 7.7 E 24 32 13 17 1020.6 1020.5 0.0
27/07:30am 21.9 17.9 9.1 44 6.8 ESE 20 26 11 14 1020.3 1020.2 0.0
27/07:00am 20.8 16.6 8.4 45 6.5 ESE 20 24 11 13 1020.0 1019.9 0.0
27/06:30am 20.9 16.9 9.2 47 6.2 ESE 20 28 11 15 1019.8 1019.7 0.0
27/06:00am 20.8 16.9 9.4 48 6.1 ESE 20 24 11 13 1019.6 1019.5 0.0
27/05:30am 21.0 17.1 8.6 45 6.5 ESE 19 26 10 14 1019.5 1019.4 0.0
27/05:00am 21.3 17.2 8.6 44 6.7 ESE 20 28 11 15 1019.2 1019.1 0.0
27/04:30am 21.4 17.3 8.7 44 6.7 ESE 20 28 11 15 1019.1 1019.0 0.0
27/04:00am 21.4 17.2 8.3 43 6.9 ESE 20 26 11 14 1019.1 1019.0 0.0
27/03:30am 21.9 17.6 7.7 40 7.4 ESE 20 30 11 16 1019.2 1019.1 0.0
27/03:00am 22.1 17.8 7.9 40 7.4 ESE 20 26 11 14 1019.2 1019.1 0.0
27/02:30am 21.5 17.5 8.4 43 6.9 SE 19 22 10 12 1019.3 1019.2 0.0
27/02:00am 21.5 17.6 8.7 44 6.8 SE 19 24 10 13 1019.4 1019.3 0.0
27/01:30am 21.3 17.9 9.2 46 6.5 SE 17 20 9 11 1019.4 1019.3 0.0
27/01:00am 21.4 18.2 9.9 48 6.2 ESE 17 22 9 12 1019.6 1019.5 0.0
27/12:30am 21.7 18.7 10.5 49 6.1 ESE 17 20 9 11 1019.8 1019.7 0.0
27/12:00am 22.0 19.0 10.5 48 6.3 ESE 17 20 9 11 1019.9 1019.8 0.0
 
Date/Time
WST
Temp
°C
App
Temp
°C
Dew
Point
°C
Rel
Hum
%
Delta-T
°C
Wind Press
QNH
hPa
Press
MSL
hPa
Rain since
9am
mm
Dir  Spd
km/h
Gust
km/h
Spd
kts
Gust
kts
26/11:30pm 22.2 19.8 11.3 50 6.1 ESE 15 19 8 10 1020.0 1019.9 0.0
26/11:00pm 22.9 20.0 11.0 47 6.6 ESE 17 22 9 12 1020.1 1020.0 0.0
26/10:30pm 23.6 20.4 9.9 42 7.5 ESE 17 22 9 12 1020.2 1020.1 0.0
26/10:00pm 24.2 20.4 9.8 40 7.9 ESE 20 26 11 14 1020.2 1020.1 0.0
26/09:30pm 24.4 20.6 9.9 40 8.0 ESE 20 32 11 17 1020.0 1019.9 0.0
26/09:00pm 24.4 21.4 12.4 47 6.9 ESE 20 26 11 14 1019.8 1019.7 0.0
26/08:30pm 24.2 22.4 13.4 51 6.3 ESE 15 19 8 10 1019.5 1019.4 0.0
26/08:00pm 24.7 22.5 13.3 49 6.6 ESE 17 20 9 11 1019.2 1019.1 0.0
26/07:30pm 25.3 23.0 12.9 46 7.2 ESE 17 22 9 12 1018.8 1018.7 0.0
26/07:00pm 26.2 23.6 11.9 41 8.2 ESE 17 24 9 13 1018.3 1018.2 0.0
26/06:30pm 26.8 23.6 11.3 38 8.8 ESE 19 26 10 14 1018.0 1017.9 0.0
26/06:00pm 27.8 23.7 10.1 33 9.9 SE 22 28 12 15 1017.6 1017.5 0.0
26/05:30pm 28.3 23.8 10.0 32 10.3 SE 24 33 13 18 1017.2 1017.1 0.0
26/05:00pm 29.2 24.7 9.9 30 10.8 SE 24 35 13 19 1017.0 1016.9 0.0
26/04:30pm 29.5 25.9 10.6 31 10.8 ESE 20 30 11 16 1016.9 1016.8 0.0
26/04:00pm 29.8 25.8 10.4 30 11.0 ESE 22 32 12 17 1017.0 1016.9 0.0
26/03:30pm 29.8 25.0 10.4 30 11.0 ESE 26 41 14 22 1016.9 1016.8 0.0
26/03:00pm 30.7 26.6 10.1 28 11.7 ESE 22 32 12 17 1016.8 1016.7 0.0
26/02:30pm 29.8 25.0 10.4 30 11.0 ESE 26 32 14 17 1017.0 1016.9 0.0
26/02:00pm 30.5 26.1 10.5 29 11.4 E 24 33 13 18 1017.3 1017.2 0.0
26/01:30pm 30.7 27.1 10.6 29 11.5 ESE 20 30 11 16 1017.4 1017.3 0.0
26/01:00pm 30.1 26.0 10.1 29 11.3 ESE 22 35 12 19 1017.7 1017.6 0.0
26/12:30pm 29.2 24.7 9.9 30 10.9 E 24 37 13 20 1018.2 1018.1 0.0
26/12:00pm 28.9 23.7 10.1 31 10.6 ESE 28 41 15 22 1018.6 1018.5 0.0
26/11:30am 28.5 23.3 10.2 32 10.3 E 28 39 15 21 1018.9 1018.8 0.0
26/11:00am 28.4 23.2 10.1 32 10.3 ESE 28 41 15 22 1019.2 1019.1 0.0
26/10:30am 27.9 22.4 10.6 34 9.8 ESE 30 41 16 22 1019.5 1019.4 0.0
26/10:00am 26.3 20.4 10.5 37 8.8 ESE 32 41 17 22 1019.8 1019.7 0.0
26/09:37am 25.9 19.9 10.1 37 8.8 ESE 32 50 17 27 1019.7 1019.6 0.0
26/09:30am 25.6 19.4 10.2 38 8.6 ESE 33 44 18 24 1019.8 1019.7 0.0
26/09:00am 25.2 19.3 10.3 39 8.3 ESE 32 44 17 24 1019.9 1019.8 0.0
26/08:30am 24.8 19.6 10.3 40 8.0 ESE 28 41 15 22 1019.8 1019.7 0.0
26/08:00am 23.8 18.8 10.8 44 7.2 ESE 28 41 15 22 1019.3 1019.2 0.0
26/07:30am 22.6 18.5 11.4 49 6.3 ESE 24 35 13 19 1018.8 1018.7 0.0
26/07:00am 21.6 17.8 11.0 51 5.8 ESE 22 30 12 16 1018.7 1018.6 0.0
26/06:30am 21.4 17.3 11.4 53 5.6 ESE 24 33 13 18 1018.6 1018.5 0.0
26/06:00am 21.3 17.5 11.3 53 5.5 ESE 22 32 12 17 1018.5 1018.4 0.0
26/05:30am 21.1 17.4 11.4 54 5.4 ESE 22 30 12 16 1018.4 1018.3 0.0
26/05:00am 21.1 17.4 11.4 54 5.4 ESE 22 30 12 16 1018.2 1018.1 0.0
26/04:30am 20.0 17.0 11.8 59 4.6 ESE 19 24 10 13 1018.2 1018.1 0.0
26/04:00am 19.6 16.8 11.4 59 4.5 SE 17 24 9 13 1018.1 1018.0 0.0
26/03:30am 19.1 16.6 10.9 59 4.5 SE 15 22 8 12 1018.1 1018.0 0.0
26/03:00am 19.2 16.2 10.7 58 4.6 SE 17 20 9 11 1018.3 1018.2 0.0
26/02:30am 19.6 16.3 10.9 57 4.7 SSE 19 22 10 12 1018.5 1018.4 0.0
26/02:00am 19.9 16.5 11.1 57 4.8 SSE 20 28 11 15 1018.6 1018.5 0.0
26/01:30am 19.9 16.6 11.7 59 4.5 SSE 20 30 11 16 1018.6 1018.5 0.0
26/01:00am 20.1 17.0 12.1 60 4.5 SSE 20 26 11 14 1018.8 1018.7 0.0
26/12:30am 20.5 16.8 12.7 61 4.4 SSE 24 32 13 17 1019.0 1018.9 0.0
26/12:00am 20.7 17.4 12.9 61 4.4 SSE 22 32 12 17 1019.0 1018.9 0.0
 
Date/Time
WST
Temp
°C
App
Temp
°C
Dew
Point
°C
Rel
Hum
%
Delta-T
°C
Wind Press
QNH
hPa
Press
MSL
hPa
Rain since
9am
mm
Dir  Spd
km/h
Gust
km/h
Spd
kts
Gust
kts
25/11:30pm 21.0 17.5 13.4 62 4.4 SSE 24 35 13 19 1019.2 1019.1 0.0
25/11:00pm 21.2 17.9 13.9 63 4.2 SSE 24 35 13 19 1019.2 1019.1 0.0
25/10:30pm 21.6 18.1 14.5 64 4.2 SSE 26 39 14 21 1019.3 1019.2 0.0
25/10:00pm 22.0 18.5 15.4 66 3.9 SSE 28 39 15 21 1019.1 1019.0 0.0
25/09:30pm 22.2 19.2 15.8 67 3.8 SSE 26 39 14 21 1019.0 1018.9 0.0
25/09:00pm 22.4 18.9 16.4 69 3.6 SSE 30 43 16 23 1018.9 1018.8 0.0
25/08:30pm 22.6 19.4 16.4 68 3.8 SSE 28 44 15 24 1018.6 1018.5 0.0
25/08:00pm 22.6 18.7 16.4 68 3.8 SSE 32 46 17 25 1018.2 1018.1 0.0
25/07:30pm 22.8 19.5 16.1 66 4.1 S 28 41 15 22 1017.9 1017.8 0.0
25/07:00pm 23.0 19.3 16.1 65 4.2 S 30 39 16 21 1017.7 1017.6 0.0
25/06:30pm 23.0 20.2 16.3 66 4.1 S 26 39 14 21 1017.1 1017.0 0.0
25/06:00pm 23.6 19.5 15.9 62 4.7 S 32 43 17 23 1016.7 1016.6 0.0
25/05:30pm 24.5 20.3 16.2 60 5.1 S 33 50 18 27 1016.3 1016.2 0.0
25/05:11pm 24.6 20.3 15.8 58 5.3 S 33 46 18 25 1016.1 1016.0 0.0
25/05:00pm 25.1 20.6 15.4 55 5.9 SSW 33 46 18 25 1016.3 1016.2 0.0
25/04:32pm 25.7 21.2 15.4 53 6.2 WSW 33 46 18 25 1016.1 1016.0 0.0
25/04:30pm 25.6 21.3 15.3 53 6.2 WSW 32 46 17 25 1016.1 1016.0 0.0

Other Formats:

Comma delimited format used in spreadsheet applications
http://www.bom.gov.au/fwo/IDW60801/IDW60801.95402.axf

JavaScript Object Notation format (JSON) in row-major order
http://www.bom.gov.au/fwo/IDW60801/IDW60801.95402.json